Time,TemperatureF,DewpointF,PressureIn,WindDirection,WindDirectionDegrees,WindSpeedMPH,WindSpeedGustMPH,Humidity,HourlyPrecipIn,Conditions,Clouds,dailyrainin,SoftwareType,DateUTC
2013-10-05 00:13:00,-999.0,-99.9,29.93,East,94,0.0,-999.0,-999,-99.99,,,0.12,weatherlink.com 1.10,2013-10-05 04:13:00,
2013-10-05 00:28:00,-999.0,-99.9,29.92,East,94,0.0,-999.0,-999,-99.99,,,0.12,weatherlink.com 1.10,2013-10-05 04:28:00,
2013-10-05 00:43:00,-999.0,-99.9,29.93,East,94,0.0,-999.0,-999,-99.99,,,0.12,weatherlink.com 1.10,2013-10-05 04:43:00,
2013-10-05 00:58:00,-999.0,-99.9,29.93,East,94,0.0,-999.0,-999,-99.99,,,0.12,weatherlink.com 1.10,2013-10-05 04:58:00,
2013-10-05 01:13:00,-999.0,-99.9,29.92,East,94,0.0,-999.0,-999,-99.99,,,0.12,weatherlink.com 1.10,2013-10-05 05:13:00,
2013-10-05 01:28:00,-999.0,-99.9,29.91,East,94,0.0,-999.0,-999,-99.99,,,0.12,weatherlink.com 1.10,2013-10-05 05:28:00,
2013-10-05 01:43:00,-999.0,-99.9,29.93,East,94,0.0,-999.0,-999,-99.99,,,0.00,weatherlink.com 1.10,2013-10-05 05:43:00,
2013-10-05 01:58:00,-999.0,-99.9,29.93,East,94,0.0,-999.0,-999,-99.99,,,0.00,weatherlink.com 1.10,2013-10-05 05:58:00,
2013-10-05 02:13:00,-999.0,-99.9,29.93,East,94,0.0,-999.0,-999,-99.99,,,0.00,weatherlink.com 1.10,2013-10-05 06:13:00,
2013-10-05 02:28:00,-999.0,-99.9,29.93,East,94,0.0,-999.0,-999,-99.99,,,0.00,weatherlink.com 1.10,2013-10-05 06:28:00,
2013-10-05 02:43:00,-999.0,-99.9,29.92,East,94,0.0,-999.0,-999,-99.99,,,0.00,weatherlink.com 1.10,2013-10-05 06:43:00,
2013-10-05 02:58:00,-999.0,-99.9,29.91,East,94,0.0,-999.0,-999,-99.99,,,0.00,weatherlink.com 1.10,2013-10-05 06:58:00,
2013-10-05 03:13:00,-999.0,-99.9,29.91,East,94,0.0,-999.0,-999,-99.99,,,0.00,weatherlink.com 1.10,2013-10-05 07:13:00,
2013-10-05 03:28:00,-999.0,-99.9,29.91,East,94,0.0,-999.0,-999,-99.99,,,0.00,weatherlink.com 1.10,2013-10-05 07:28:00,
2013-10-05 03:43:00,-999.0,-99.9,29.91,East,94,0.0,-999.0,-999,-99.99,,,0.00,weatherlink.com 1.10,2013-10-05 07:43:00,
2013-10-05 03:58:00,-999.0,-99.9,29.91,East,94,0.0,-999.0,-999,-99.99,,,0.00,weatherlink.com 1.10,2013-10-05 07:58:00,
2013-10-05 04:28:00,-999.0,-99.9,29.93,East,94,0.0,-999.0,-999,-99.99,,,0.00,weatherlink.com 1.10,2013-10-05 08:28:00,
2013-10-05 04:43:00,-999.0,-99.9,29.93,East,94,0.0,-999.0,-999,-99.99,,,0.00,weatherlink.com 1.10,2013-10-05 08:43:00,
2013-10-05 04:58:00,-999.0,-99.9,29.93,East,94,0.0,-999.0,-999,-99.99,,,0.00,weatherlink.com 1.10,2013-10-05 08:58:00,
2013-10-05 05:13:00,-999.0,-99.9,29.92,East,94,0.0,-999.0,-999,-99.99,,,0.00,weatherlink.com 1.10,2013-10-05 09:13:00,
2013-10-05 05:28:00,-999.0,-99.9,29.93,East,94,0.0,-999.0,-999,-99.99,,,0.00,weatherlink.com 1.10,2013-10-05 09:28:00,
2013-10-05 05:43:00,-999.0,-99.9,29.93,East,94,0.0,-999.0,-999,-99.99,,,0.00,weatherlink.com 1.10,2013-10-05 09:43:00,
2013-10-05 05:58:00,-999.0,-99.9,29.93,East,94,0.0,-999.0,-999,-99.99,,,0.00,weatherlink.com 1.10,2013-10-05 09:58:00,
2013-10-05 06:13:00,-999.0,-99.9,29.94,East,94,0.0,-999.0,-999,-99.99,,,0.00,weatherlink.com 1.10,2013-10-05 10:13:00,
2013-10-05 06:28:00,-999.0,-99.9,29.94,East,94,0.0,-999.0,-999,-99.99,,,0.00,weatherlink.com 1.10,2013-10-05 10:28:00,
2013-10-05 06:43:00,-999.0,-99.9,29.95,East,94,0.0,-999.0,-999,-99.99,,,0.00,weatherlink.com 1.10,2013-10-05 10:43:00,
2013-10-05 06:58:00,-999.0,-99.9,29.94,East,94,0.0,-999.0,-999,-99.99,,,0.00,weatherlink.com 1.10,2013-10-05 10:58:00,
2013-10-05 07:13:00,-999.0,-99.9,29.94,East,94,0.0,-999.0,-999,-99.99,,,0.00,weatherlink.com 1.10,2013-10-05 11:13:00,
2013-10-05 07:28:00,-999.0,-99.9,29.94,East,94,0.0,-999.0,-999,-99.99,,,0.00,weatherlink.com 1.10,2013-10-05 11:28:00,
2013-10-05 07:43:00,-999.0,-99.9,29.94,East,94,0.0,-999.0,-999,-99.99,,,0.00,weatherlink.com 1.10,2013-10-05 11:43:00,
2013-10-05 07:58:00,-999.0,-99.9,29.95,East,94,0.0,-999.0,-999,-99.99,,,0.00,weatherlink.com 1.10,2013-10-05 11:58:00,
2013-10-05 08:13:00,-999.0,-99.9,29.96,East,94,0.0,-999.0,-999,-99.99,,,0.00,weatherlink.com 1.10,2013-10-05 12:13:00,
2013-10-05 08:28:00,-999.0,-99.9,29.96,East,94,0.0,-999.0,-999,-99.99,,,0.00,weatherlink.com 1.10,2013-10-05 12:28:00,
2013-10-05 08:43:00,-999.0,-99.9,29.96,East,94,0.0,-999.0,-999,-99.99,,,0.00,weatherlink.com 1.10,2013-10-05 12:43:00,
2013-10-05 08:58:00,-999.0,-99.9,29.96,East,94,0.0,-999.0,-999,-99.99,,,0.00,weatherlink.com 1.10,2013-10-05 12:58:00,
2013-10-05 09:13:00,-999.0,-99.9,29.97,East,94,0.0,-999.0,-999,-99.99,,,0.00,weatherlink.com 1.10,2013-10-05 13:13:00,
2013-10-05 09:28:00,59.2,59.0,29.96,East,94,0.0,-999.0,99,-99.99,,,0.00,weatherlink.com 1.10,2013-10-05 13:28:00,
2013-10-05 09:43:00,59.3,59.0,29.96,ENE,62,0.0,-999.0,99,-99.99,,,0.00,weatherlink.com 1.10,2013-10-05 13:43:00,
2013-10-05 09:58:00,59.6,59.0,29.97,ENE,63,0.0,-999.0,98,-99.99,,,0.00,weatherlink.com 1.10,2013-10-05 13:58:00,
2013-10-05 10:13:00,59.9,59.0,29.97,ENE,63,2.0,-999.0,98,-99.99,,,0.00,weatherlink.com 1.10,2013-10-05 14:13:00,
2013-10-05 10:28:00,60.1,59.0,29.97,ENE,63,0.0,-999.0,97,-99.99,,,0.00,weatherlink.com 1.10,2013-10-05 14:28:00,
2013-10-05 10:43:00,60.2,59.0,29.97,ENE,63,0.0,-999.0,97,-99.99,,,0.00,weatherlink.com 1.10,2013-10-05 14:43:00,
2013-10-05 10:58:00,60.4,59.0,29.96,ENE,63,0.0,-999.0,96,-99.99,,,0.00,weatherlink.com 1.10,2013-10-05 14:58:00,
2013-10-05 11:13:00,61.2,60.0,29.96,ENE,63,0.0,-999.0,96,-99.99,,,0.00,weatherlink.com 1.10,2013-10-05 15:13:00,
2013-10-05 11:28:00,61.5,60.0,29.96,ENE,63,0.0,-999.0,93,-99.99,,,0.00,weatherlink.com 1.10,2013-10-05 15:28:00,
2013-10-05 11:43:00,62.0,59.0,29.95,ENE,63,0.0,-999.0,89,-99.99,,,0.00,weatherlink.com 1.10,2013-10-05 15:43:00,
2013-10-05 11:58:00,62.3,58.0,29.96,ENE,63,0.0,-999.0,87,-99.99,,,0.00,weatherlink.com 1.10,2013-10-05 15:58:00,
2013-10-05 12:13:00,62.7,58.0,29.96,ENE,57,0.0,-999.0,83,-99.99,,,0.00,weatherlink.com 1.10,2013-10-05 16:13:00,
2013-10-05 12:28:00,63.5,59.0,29.95,ENE,57,0.0,-999.0,86,-99.99,,,0.00,weatherlink.com 1.10,2013-10-05 16:28:00,
2013-10-05 12:43:00,63.9,58.0,29.95,ENE,57,0.0,-999.0,81,-99.99,,,0.00,weatherlink.com 1.10,2013-10-05 16:43:00,
2013-10-05 12:58:00,64.3,59.0,29.94,ENE,57,0.0,-999.0,83,-99.99,,,0.00,weatherlink.com 1.10,2013-10-05 16:58:00,
2013-10-05 13:13:00,64.7,58.0,29.95,ENE,57,0.0,-999.0,80,-99.99,,,0.00,weatherlink.com 1.10,2013-10-05 17:13:00,
2013-10-05 13:28:00,65.2,57.0,29.94,ENE,57,2.0,-999.0,76,-99.99,,,0.00,weatherlink.com 1.10,2013-10-05 17:28:00,
2013-10-05 13:43:00,65.6,58.0,29.93,ENE,57,0.0,-999.0,77,-99.99,,,0.00,weatherlink.com 1.10,2013-10-05 17:43:00,
2013-10-05 13:58:00,66.1,58.0,29.93,ENE,57,0.0,-999.0,75,-99.99,,,0.00,weatherlink.com 1.10,2013-10-05 17:58:00,
2013-10-05 14:13:00,66.6,58.0,29.92,ENE,57,0.0,-999.0,74,-99.99,,,0.00,weatherlink.com 1.10,2013-10-05 18:13:00,
2013-10-05 14:28:00,66.8,57.0,29.93,ENE,57,0.0,-999.0,72,-99.99,,,0.00,weatherlink.com 1.10,2013-10-05 18:28:00,
2013-10-05 14:43:00,66.9,58.0,29.93,ENE,57,2.0,-999.0,74,-99.99,,,0.00,weatherlink.com 1.10,2013-10-05 18:43:00,
2013-10-05 14:58:00,66.9,59.0,29.93,ENE,57,1.0,-999.0,75,-99.99,,,0.00,weatherlink.com 1.10,2013-10-05 18:58:00,
2013-10-05 15:13:00,66.9,58.0,29.92,ENE,58,0.0,-999.0,74,-99.99,,,0.00,weatherlink.com 1.10,2013-10-05 19:13:00,
2013-10-05 15:28:00,67.1,57.0,29.93,ENE,59,0.0,-999.0,71,-99.99,,,0.01,weatherlink.com 1.10,2013-10-05 19:28:00,
2013-10-05 15:43:00,67.1,59.0,29.92,ENE,59,0.0,-999.0,74,-99.99,,,0.01,weatherlink.com 1.10,2013-10-05 19:43:00,
2013-10-05 15:58:00,67.1,59.0,29.92,ENE,59,0.0,-999.0,74,-99.99,,,0.01,weatherlink.com 1.10,2013-10-05 19:58:00,
2013-10-05 16:13:00,66.9,59.0,29.92,ENE,59,0.0,-999.0,76,-99.99,,,0.01,weatherlink.com 1.10,2013-10-05 20:13:00,
2013-10-05 16:28:00,66.8,59.0,29.92,ENE,59,0.0,-999.0,76,-99.99,,,0.01,weatherlink.com 1.10,2013-10-05 20:28:00,
2013-10-05 16:43:00,66.4,59.0,29.92,ENE,59,0.0,-999.0,77,-99.99,,,0.01,weatherlink.com 1.10,2013-10-05 20:43:00,
2013-10-05 16:58:00,66.4,60.0,29.93,ENE,59,1.0,-999.0,79,-99.99,,,0.01,weatherlink.com 1.10,2013-10-05 20:58:00,
2013-10-05 17:13:00,-999.0,-99.9,29.93,ENE,59,0.0,-999.0,-999,-99.99,,,0.01,weatherlink.com 1.10,2013-10-05 21:13:00,
2013-10-05 17:28:00,-999.0,-99.9,29.94,ENE,59,0.0,-999.0,-999,-99.99,,,0.01,weatherlink.com 1.10,2013-10-05 21:28:00,
2013-10-05 17:43:00,-999.0,-99.9,29.94,ENE,59,0.0,-999.0,-999,-99.99,,,0.01,weatherlink.com 1.10,2013-10-05 21:43:00,
2013-10-05 17:58:00,-999.0,-99.9,29.94,ENE,59,0.0,-999.0,-999,-99.99,,,0.01,weatherlink.com 1.10,2013-10-05 21:58:00,
2013-10-05 18:13:00,-999.0,-99.9,29.94,ENE,59,0.0,-999.0,-999,-99.99,,,0.01,weatherlink.com 1.10,2013-10-05 22:13:00,
2013-10-05 18:28:00,-999.0,-99.9,29.94,ENE,59,0.0,-999.0,-999,-99.99,,,0.01,weatherlink.com 1.10,2013-10-05 22:28:00,
2013-10-05 18:43:00,-999.0,-99.9,29.95,ENE,59,0.0,-999.0,-999,-99.99,,,0.01,weatherlink.com 1.10,2013-10-05 22:43:00,
2013-10-05 18:58:00,-999.0,-99.9,29.94,ENE,59,0.0,-999.0,-999,-99.99,,,0.01,weatherlink.com 1.10,2013-10-05 22:58:00,
2013-10-05 19:13:00,-999.0,-99.9,29.95,ENE,59,0.0,-999.0,-999,-99.99,,,0.01,weatherlink.com 1.10,2013-10-05 23:13:00,
2013-10-05 19:28:00,-999.0,-99.9,29.95,ENE,59,0.0,-999.0,-999,-99.99,,,0.01,weatherlink.com 1.10,2013-10-05 23:28:00,
2013-10-05 19:43:00,-999.0,-99.9,29.96,ENE,59,0.0,-999.0,-999,-99.99,,,0.01,weatherlink.com 1.10,2013-10-05 23:43:00,
2013-10-05 19:58:00,-999.0,-99.9,29.95,ENE,59,0.0,-999.0,-999,-99.99,,,0.01,weatherlink.com 1.10,2013-10-05 23:58:00,
2013-10-05 20:13:00,-999.0,-99.9,29.96,ENE,59,0.0,-999.0,-999,-99.99,,,0.01,weatherlink.com 1.10,2013-10-06 00:13:00,
2013-10-05 20:28:00,-999.0,-99.9,29.96,ENE,59,0.0,-999.0,-999,-99.99,,,0.01,weatherlink.com 1.10,2013-10-06 00:28:00,
2013-10-05 20:43:00,-999.0,-99.9,29.96,ENE,59,0.0,-999.0,-999,-99.99,,,0.01,weatherlink.com 1.10,2013-10-06 00:43:00,
2013-10-05 20:58:00,-999.0,-99.9,29.97,ENE,59,0.0,-999.0,-999,-99.99,,,0.01,weatherlink.com 1.10,2013-10-06 00:58:00,
2013-10-05 21:13:00,-999.0,-99.9,29.97,ENE,59,0.0,-999.0,-999,-99.99,,,0.01,weatherlink.com 1.10,2013-10-06 01:13:00,
2013-10-05 21:28:00,-999.0,-99.9,29.97,ENE,59,0.0,-999.0,-999,-99.99,,,0.01,weatherlink.com 1.10,2013-10-06 01:28:00,
2013-10-05 21:43:00,-999.0,-99.9,29.97,ENE,59,0.0,-999.0,-999,-99.99,,,0.01,weatherlink.com 1.10,2013-10-06 01:43:00,
2013-10-05 21:58:00,-999.0,-99.9,29.97,ENE,59,0.0,-999.0,-999,-99.99,,,0.01,weatherlink.com 1.10,2013-10-06 01:58:00,
2013-10-05 22:13:00,-999.0,-99.9,29.98,ENE,59,0.0,-999.0,-999,-99.99,,,0.01,weatherlink.com 1.10,2013-10-06 02:13:00,
2013-10-05 22:28:00,-999.0,-99.9,29.98,ENE,59,0.0,-999.0,-999,-99.99,,,0.01,weatherlink.com 1.10,2013-10-06 02:28:00,
2013-10-05 22:43:00,-999.0,-99.9,29.98,ENE,59,0.0,-999.0,-999,-99.99,,,0.01,weatherlink.com 1.10,2013-10-06 02:43:00,
2013-10-05 22:58:00,-999.0,-99.9,29.98,ENE,59,0.0,-999.0,-999,-99.99,,,0.01,weatherlink.com 1.10,2013-10-06 02:58:00,
2013-10-05 23:14:00,-999.0,-99.9,29.98,ENE,59,0.0,-999.0,-999,-99.99,,,0.01,weatherlink.com 1.10,2013-10-06 03:14:00,
2013-10-05 23:29:00,-999.0,-99.9,29.99,ENE,59,0.0,-999.0,-999,-99.99,,,0.01,weatherlink.com 1.10,2013-10-06 03:29:00,
2013-10-05 23:44:00,-999.0,-99.9,29.99,ENE,59,0.0,-999.0,-999,-99.99,,,0.01,weatherlink.com 1.10,2013-10-06 03:44:00,
2013-10-05 23:59:00,-999.0,-99.9,29.99,ENE,59,0.0,-999.0,-999,-99.99,,,0.01,weatherlink.com 1.10,2013-10-06 03:59:00,